sensor_id;sensor_type;location;lat;lon;timestamp;pressure;altitude;pressure_sealevel;temperature;humidity
5651;BME280;40241;52.684;9.758;2022-08-30T00:00:40;101961.34;;;17.56;54.35
5651;BME280;40241;52.684;9.758;2022-08-30T00:03:24;101959.81;;;17.50;54.28
5651;BME280;40241;52.684;9.758;2022-08-30T00:05:51;101957.03;;;17.44;54.32
5651;BME280;40241;52.684;9.758;2022-08-30T00:08:17;101965.66;;;17.41;54.44
5651;BME280;40241;52.684;9.758;2022-08-30T00:10:43;101965.66;;;17.35;54.48
5651;BME280;40241;52.684;9.758;2022-08-30T00:13:09;101959.09;;;17.27;54.47
5651;BME280;40241;52.684;9.758;2022-08-30T00:15:36;101963.91;;;17.27;54.55
5651;BME280;40241;52.684;9.758;2022-08-30T00:18:02;101961.88;;;17.21;54.59
5651;BME280;40241;52.684;9.758;2022-08-30T00:20:29;101966.94;;;17.17;54.68
5651;BME280;40241;52.684;9.758;2022-08-30T00:22:55;101960.88;;;17.13;54.75
5651;BME280;40241;52.684;9.758;2022-08-30T00:25:21;101963.91;;;17.10;54.63
5651;BME280;40241;52.684;9.758;2022-08-30T00:27:47;101966.94;;;17.06;54.67
5651;BME280;40241;52.684;9.758;2022-08-30T00:30:13;101967.19;;;17.03;54.58
5651;BME280;40241;52.684;9.758;2022-08-30T00:32:39;101969.22;;;16.97;54.69
5651;BME280;40241;52.684;9.758;2022-08-30T00:35:07;101962.88;;;16.91;54.70
5651;BME280;40241;52.684;9.758;2022-08-30T00:37:32;101973.25;;;16.85;54.76
5651;BME280;40241;52.684;9.758;2022-08-30T00:39:58;101961.63;;;16.81;54.86
5651;BME280;40241;52.684;9.758;2022-08-30T00:42:23;101971.72;;;16.78;54.84
5651;BME280;40241;52.684;9.758;2022-08-30T00:44:50;101974.75;;;16.75;54.86
5651;BME280;40241;52.684;9.758;2022-08-30T00:47:15;101971.19;;;16.69;54.85
5651;BME280;40241;52.684;9.758;2022-08-30T00:49:43;101972.22;;;16.66;54.95
5651;BME280;40241;52.684;9.758;2022-08-30T00:52:09;101971.19;;;16.63;54.98
5651;BME280;40241;52.684;9.758;2022-08-30T00:54:37;101963.13;;;16.60;55.00
5651;BME280;40241;52.684;9.758;2022-08-30T00:57:03;101957.53;;;16.54;54.96
5651;BME280;40241;52.684;9.758;2022-08-30T00:59:30;101970.41;;;16.52;55.13
5651;BME280;40241;52.684;9.758;2022-08-30T01:01:56;101964.56;;;16.49;55.15
5651;BME280;40241;52.684;9.758;2022-08-30T01:04:23;101972.63;;;16.47;55.09
5651;BME280;40241;52.684;9.758;2022-08-30T01:06:49;101972.13;;;16.43;55.08
5651;BME280;40241;52.684;9.758;2022-08-30T01:09:15;101966.56;;;16.38;55.19
5651;BME280;40241;52.684;9.758;2022-08-30T01:11:42;101965.28;;;16.33;55.13
5651;BME280;40241;52.684;9.758;2022-08-30T01:14:09;101975.38;;;16.31;55.22
5651;BME280;40241;52.684;9.758;2022-08-30T01:16:39;101972.81;;;16.27;55.18
5651;BME280;40241;52.684;9.758;2022-08-30T01:19:11;101970.56;;;16.26;55.34
5651;BME280;40241;52.684;9.758;2022-08-30T01:21:45;101969.78;;;16.20;55.50
5651;BME280;40241;52.684;9.758;2022-08-30T01:24:12;101968.25;;;16.19;55.55
5651;BME280;40241;52.684;9.758;2022-08-30T01:26:38;101975.34;;;16.20;55.52
5651;BME280;40241;52.684;9.758;2022-08-30T01:29:07;101967.78;;;16.20;55.63
5651;BME280;40241;52.684;9.758;2022-08-30T01:31:34;101974.06;;;16.21;55.58
5651;BME280;40241;52.684;9.758;2022-08-30T01:34:02;101973.06;;;16.24;55.65
5651;BME280;40241;52.684;9.758;2022-08-30T01:36:29;101969.78;;;16.25;55.73
5651;BME280;40241;52.684;9.758;2022-08-30T01:38:56;101970.03;;;16.27;55.66
5651;BME280;40241;52.684;9.758;2022-08-30T01:41:26;101973.06;;;16.29;55.77
5651;BME280;40241;52.684;9.758;2022-08-30T01:43:54;101968.03;;;16.28;55.80
5651;BME280;40241;52.684;9.758;2022-08-30T01:46:23;101975.84;;;16.29;55.72
5651;BME280;40241;52.684;9.758;2022-08-30T01:48:50;101971.56;;;16.28;55.89
5651;BME280;40241;52.684;9.758;2022-08-30T01:51:16;101974.59;;;16.30;55.88
5651;BME280;40241;52.684;9.758;2022-08-30T01:53:43;101970.59;;;16.31;55.93
5651;BME280;40241;52.684;9.758;2022-08-30T01:56:09;101973.06;;;16.29;55.97
5651;BME280;40241;52.684;9.758;2022-08-30T01:58:36;101972.09;;;16.32;56.06
5651;BME280;40241;52.684;9.758;2022-08-30T02:01:07;101983.72;;;16.36;56.48
5651;BME280;40241;52.684;9.758;2022-08-30T02:03:34;101981.97;;;16.39;56.22
5651;BME280;40241;52.684;9.758;2022-08-30T02:06:04;101977.16;;;16.45;56.36
5651;BME280;40241;52.684;9.758;2022-08-30T02:08:30;101975.91;;;16.46;56.18
5651;BME280;40241;52.684;9.758;2022-08-30T02:10:55;101978.19;;;16.47;56.17
5651;BME280;40241;52.684;9.758;2022-08-30T02:13:23;101974.16;;;16.48;56.25
5651;BME280;40241;52.684;9.758;2022-08-30T02:15:48;101975.22;;;16.51;56.24
5651;BME280;40241;52.684;9.758;2022-08-30T02:18:14;101975.97;;;16.52;56.17
5651;BME280;40241;52.684;9.758;2022-08-30T02:20:39;101974.44;;;16.51;56.27
5651;BME280;40241;52.684;9.758;2022-08-30T02:23:05;101977.22;;;16.51;56.27
5651;BME280;40241;52.684;9.758;2022-08-30T02:25:30;101971.16;;;16.52;56.41
5651;BME280;40241;52.684;9.758;2022-08-30T02:27:55;101970.91;;;16.50;56.51
5651;BME280;40241;52.684;9.758;2022-08-30T02:30:21;101974.16;;;16.48;56.61
5651;BME280;40241;52.684;9.758;2022-08-30T02:32:46;101969.59;;;16.45;56.80
5651;BME280;40241;52.684;9.758;2022-08-30T02:35:12;101980.72;;;16.45;56.86
5651;BME280;40241;52.684;9.758;2022-08-30T02:37:37;101976.94;;;16.48;56.98
5651;BME280;40241;52.684;9.758;2022-08-30T02:40:03;101966.88;;;16.51;56.90
5651;BME280;40241;52.684;9.758;2022-08-30T02:42:30;101974.72;;;16.53;56.92
5651;BME280;40241;52.684;9.758;2022-08-30T02:44:55;101969.16;;;16.53;57.02
5651;BME280;40241;52.684;9.758;2022-08-30T02:47:20;101973.94;;;16.52;57.09
5651;BME280;40241;52.684;9.758;2022-08-30T02:49:46;101976.22;;;16.54;57.03
5651;BME280;40241;52.684;9.758;2022-08-30T02:52:11;101969.16;;;16.53;57.22
5651;BME280;40241;52.684;9.758;2022-08-30T02:54:37;101965.59;;;16.52;57.22
5651;BME280;40241;52.684;9.758;2022-08-30T02:57:02;101963.59;;;16.53;57.33
5651;BME280;40241;52.684;9.758;2022-08-30T02:59:31;101965.09;;;16.54;57.39
5651;BME280;40241;52.684;9.758;2022-08-30T03:01:57;101959.06;;;16.55;57.34
5651;BME280;40241;52.684;9.758;2022-08-30T03:04:22;101958.53;;;16.57;57.28
5651;BME280;40241;52.684;9.758;2022-08-30T03:06:48;101957.28;;;16.58;57.26
5651;BME280;40241;52.684;9.758;2022-08-30T03:09:13;101956.28;;;16.55;57.28
5651;BME280;40241;52.684;9.758;2022-08-30T03:11:38;101947.69;;;16.53;57.37
5651;BME280;40241;52.684;9.758;2022-08-30T03:14:04;101954.75;;;16.54;57.29
5651;BME280;40241;52.684;9.758;2022-08-30T03:16:30;101954.22;;;16.56;57.36
5651;BME280;40241;52.684;9.758;2022-08-30T03:18:55;101953.97;;;16.54;57.35
5651;BME280;40241;52.684;9.758;2022-08-30T03:21:20;101949.44;;;16.51;57.38
5651;BME280;40241;52.684;9.758;2022-08-30T03:23:47;101955.97;;;16.47;57.26
5651;BME280;40241;52.684;9.758;2022-08-30T03:26:12;101966.06;;;16.45;57.30
5651;BME280;40241;52.684;9.758;2022-08-30T03:28:40;101962.50;;;16.39;57.26
5651;BME280;40241;52.684;9.758;2022-08-30T03:31:06;101961.50;;;16.36;57.41
5651;BME280;40241;52.684;9.758;2022-08-30T03:33:31;101969.34;;;16.38;57.40
5651;BME280;40241;52.684;9.758;2022-08-30T03:35:56;101967.56;;;16.35;57.29
5651;BME280;40241;52.684;9.758;2022-08-30T03:38:22;101965.78;;;16.32;57.09
5651;BME280;40241;52.684;9.758;2022-08-30T03:40:48;101965.03;;;16.31;57.45
5651;BME280;40241;52.684;9.758;2022-08-30T03:43:13;101963.50;;;16.30;57.35
5651;BME280;40241;52.684;9.758;2022-08-30T03:45:39;101957.69;;;16.28;57.40
5651;BME280;40241;52.684;9.758;2022-08-30T03:48:04;101972.56;;;16.25;57.15
5651;BME280;40241;52.684;9.758;2022-08-30T03:50:30;101967.50;;;16.18;57.22
5651;BME280;40241;52.684;9.758;2022-08-30T03:52:56;101967.22;;;16.11;57.34
5651;BME280;40241;52.684;9.758;2022-08-30T03:55:22;101964.69;;;16.07;57.48
5651;BME280;40241;52.684;9.758;2022-08-30T03:57:47;101982.59;;;16.06;57.46
5651;BME280;40241;52.684;9.758;2022-08-30T04:00:14;101960.13;;;16.04;57.51
5651;BME280;40241;52.684;9.758;2022-08-30T04:02:40;101974.50;;;16.03;57.50
5651;BME280;40241;52.684;9.758;2022-08-30T04:05:06;101973.22;;;15.98;57.34
5651;BME280;40241;52.684;9.758;2022-08-30T04:07:32;101971.69;;;15.92;57.45
5651;BME280;40241;52.684;9.758;2022-08-30T04:09:57;101972.91;;;15.85;57.61
5651;BME280;40241;52.684;9.758;2022-08-30T04:12:22;101965.31;;;15.80;57.49
5651;BME280;40241;52.684;9.758;2022-08-30T04:14:48;101969.31;;;15.73;57.53
5651;BME280;40241;52.684;9.758;2022-08-30T04:17:13;101967.03;;;15.72;57.68
5651;BME280;40241;52.684;9.758;2022-08-30T04:19:39;101973.06;;;15.70;57.41
5651;BME280;40241;52.684;9.758;2022-08-30T04:22:04;101976.09;;;15.67;57.45
5651;BME280;40241;52.684;9.758;2022-08-30T04:24:30;101976.78;;;15.62;57.50
5651;BME280;40241;52.684;9.758;2022-08-30T04:26:55;101972.50;;;15.61;57.59
5651;BME280;40241;52.684;9.758;2022-08-30T04:29:21;101971.75;;;15.60;57.57
5651;BME280;40241;52.684;9.758;2022-08-30T04:31:46;101968.72;;;15.58;57.51
5651;BME280;40241;52.684;9.758;2022-08-30T04:34:13;101981.56;;;15.56;57.52
5651;BME280;40241;52.684;9.758;2022-08-30T04:36:38;101977.00;;;15.53;57.40
5651;BME280;40241;52.684;9.758;2022-08-30T04:39:04;101981.00;;;15.46;57.52
5651;BME280;40241;52.684;9.758;2022-08-30T04:41:30;101979.47;;;15.45;57.49
5651;BME280;40241;52.684;9.758;2022-08-30T04:43:55;101977.19;;;15.44;57.60
5651;BME280;40241;52.684;9.758;2022-08-30T04:46:20;101980.72;;;15.44;57.63
5651;BME280;40241;52.684;9.758;2022-08-30T04:48:46;101977.94;;;15.44;57.77
5651;BME280;40241;52.684;9.758;2022-08-30T04:51:14;101984.25;;;15.45;57.71
5651;BME280;40241;52.684;9.758;2022-08-30T04:53:40;101977.72;;;15.48;57.92
5651;BME280;40241;52.684;9.758;2022-08-30T04:56:19;101990.88;;;15.53;58.39
5651;BME280;40241;52.684;9.758;2022-08-30T04:58:48;101993.91;;;15.55;57.94
5651;BME280;40241;52.684;9.758;2022-08-30T05:01:33;101993.69;;;15.58;58.01
5651;BME280;40241;52.684;9.758;2022-08-30T05:03:58;101995.47;;;15.61;58.08
5651;BME280;40241;52.684;9.758;2022-08-30T05:06:26;102000.28;;;15.66;58.18
5651;BME280;40241;52.684;9.758;2022-08-30T05:08:53;102005.13;;;15.71;58.04
5651;BME280;40241;52.684;9.758;2022-08-30T05:11:18;102005.13;;;15.77;57.94
5651;BME280;40241;52.684;9.758;2022-08-30T05:13:44;102001.13;;;15.78;58.18
5651;BME280;40241;52.684;9.758;2022-08-30T05:16:11;102010.22;;;15.84;58.23
5651;BME280;40241;52.684;9.758;2022-08-30T05:18:45;102017.06;;;15.89;58.21
5651;BME280;40241;52.684;9.758;2022-08-30T05:21:14;102013.56;;;15.94;58.24
5651;BME280;40241;52.684;9.758;2022-08-30T05:23:41;102022.19;;;16.01;58.24
5651;BME280;40241;52.684;9.758;2022-08-30T05:26:15;102021.72;;;16.08;58.55
5651;BME280;40241;52.684;9.758;2022-08-30T05:28:42;102023.78;;;16.13;58.21
5651;BME280;40241;52.684;9.758;2022-08-30T05:31:18;102025.31;;;16.20;58.48
5651;BME280;40241;52.684;9.758;2022-08-30T05:33:45;102025.06;;;16.23;58.28
5651;BME280;40241;52.684;9.758;2022-08-30T05:36:12;102024.34;;;16.28;58.15
5651;BME280;40241;52.684;9.758;2022-08-30T05:38:39;102021.09;;;16.35;58.33
5651;BME280;40241;52.684;9.758;2022-08-30T05:41:05;102028.19;;;16.42;58.34
5651;BME280;40241;52.684;9.758;2022-08-30T05:43:31;102028.72;;;16.46;58.31
5651;BME280;40241;52.684;9.758;2022-08-30T05:46:04;102035.06;;;16.52;58.40
5651;BME280;40241;52.684;9.758;2022-08-30T05:48:30;102030.03;;;16.56;58.36
5651;BME280;40241;52.684;9.758;2022-08-30T05:51:16;102028.78;;;16.63;58.62
5651;BME280;40241;52.684;9.758;2022-08-30T05:53:43;102027.28;;;16.67;58.30
5651;BME280;40241;52.684;9.758;2022-08-30T05:56:11;102030.34;;;16.75;58.33
5651;BME280;40241;52.684;9.758;2022-08-30T05:58:37;102031.38;;;16.83;58.30
5651;BME280;40241;52.684;9.758;2022-08-30T06:01:03;102037.94;;;16.91;58.39
5651;BME280;40241;52.684;9.758;2022-08-30T06:03:29;102030.38;;;16.97;58.48
5651;BME280;40241;52.684;9.758;2022-08-30T06:05:57;102029.63;;;17.02;58.50
5651;BME280;40241;52.684;9.758;2022-08-30T06:08:23;102025.59;;;17.08;58.28
5651;BME280;40241;52.684;9.758;2022-08-30T06:10:49;102023.81;;;17.11;58.43
5651;BME280;40241;52.684;9.758;2022-08-30T06:13:14;102029.41;;;17.16;58.49
5651;BME280;40241;52.684;9.758;2022-08-30T06:15:41;102026.59;;;17.22;58.52
5651;BME280;40241;52.684;9.758;2022-08-30T06:18:09;102024.81;;;17.30;58.53
5651;BME280;40241;52.684;9.758;2022-08-30T06:20:42;102032.94;;;17.39;58.58
5651;BME280;40241;52.684;9.758;2022-08-30T06:23:09;102030.16;;;17.45;58.54
5651;BME280;40241;52.684;9.758;2022-08-30T06:25:36;102024.09;;;17.52;58.48
5651;BME280;40241;52.684;9.758;2022-08-30T06:28:03;102022.81;;;17.58;58.48
5651;BME280;40241;52.684;9.758;2022-08-30T06:30:29;102022.31;;;17.65;58.60
5651;BME280;40241;52.684;9.758;2022-08-30T06:32:55;102027.38;;;17.72;58.59
5651;BME280;40241;52.684;9.758;2022-08-30T06:35:20;102022.53;;;17.78;58.61
5651;BME280;40241;52.684;9.758;2022-08-30T06:37:45;102024.03;;;17.85;58.59
5651;BME280;40241;52.684;9.758;2022-08-30T06:40:11;102020.75;;;17.92;58.70
5651;BME280;40241;52.684;9.758;2022-08-30T06:42:37;102025.28;;;18.01;58.75
5651;BME280;40241;52.684;9.758;2022-08-30T06:45:04;102019.41;;;18.10;58.60
5651;BME280;40241;52.684;9.758;2022-08-30T06:47:30;102020.91;;;18.16;58.75
5651;BME280;40241;52.684;9.758;2022-08-30T06:49:55;102028.22;;;18.25;58.71
5651;BME280;40241;52.684;9.758;2022-08-30T06:52:21;102020.34;;;18.34;59.01
5651;BME280;40241;52.684;9.758;2022-08-30T06:54:46;102020.06;;;18.43;58.84
5651;BME280;40241;52.684;9.758;2022-08-30T06:57:12;102022.31;;;18.50;58.97
5651;BME280;40241;52.684;9.758;2022-08-30T06:59:38;102023.31;;;18.58;58.97
5651;BME280;40241;52.684;9.758;2022-08-30T07:02:04;102016.66;;;18.67;58.80
5651;BME280;40241;52.684;9.758;2022-08-30T07:04:30;102023.44;;;18.77;59.06
5651;BME280;40241;52.684;9.758;2022-08-30T07:06:56;102021.34;;;18.83;58.93
5651;BME280;40241;52.684;9.758;2022-08-30T07:09:21;102020.53;;;18.94;58.99
5651;BME280;40241;52.684;9.758;2022-08-30T07:11:46;102010.56;;;19.04;59.03
5651;BME280;40241;52.684;9.758;2022-08-30T07:14:12;102024.94;;;19.13;58.74
5651;BME280;40241;52.684;9.758;2022-08-30T07:16:37;102031.50;;;19.21;58.79
5651;BME280;40241;52.684;9.758;2022-08-30T07:19:03;102030.94;;;19.28;58.80
5651;BME280;40241;52.684;9.758;2022-08-30T07:21:35;102036.47;;;19.34;59.26
5651;BME280;40241;52.684;9.758;2022-08-30T07:24:02;102034.94;;;19.38;58.83
5651;BME280;40241;52.684;9.758;2022-08-30T07:26:32;102044.25;;;19.47;58.80
5651;BME280;40241;52.684;9.758;2022-08-30T07:28:58;102038.84;;;19.54;58.69
5651;BME280;40241;52.684;9.758;2022-08-30T07:31:24;102039.75;;;19.68;58.87
5651;BME280;40241;52.684;9.758;2022-08-30T07:33:49;102042.91;;;19.83;58.71
5651;BME280;40241;52.684;9.758;2022-08-30T07:36:15;102050.94;;;19.92;58.54
5651;BME280;40241;52.684;9.758;2022-08-30T07:38:43;102043.47;;;20.00;58.38
5651;BME280;40241;52.684;9.758;2022-08-30T07:41:15;102046.19;;;20.05;58.63
5651;BME280;40241;52.684;9.758;2022-08-30T07:43:41;102050.56;;;20.01;58.04
5651;BME280;40241;52.684;9.758;2022-08-30T07:46:07;102044.75;;;19.99;58.14
5651;BME280;40241;52.684;9.758;2022-08-30T07:48:33;102048.06;;;19.97;58.20
5651;BME280;40241;52.684;9.758;2022-08-30T07:50:59;102056.38;;;20.03;58.18
5651;BME280;40241;52.684;9.758;2022-08-30T07:53:25;102049.44;;;20.09;58.30
5651;BME280;40241;52.684;9.758;2022-08-30T07:55:51;102054.19;;;20.20;57.93
5651;BME280;40241;52.684;9.758;2022-08-30T07:58:17;102059.41;;;20.29;57.99
5651;BME280;40241;52.684;9.758;2022-08-30T08:00:42;102064.63;;;20.38;57.80
5651;BME280;40241;52.684;9.758;2022-08-30T08:03:08;102065.56;;;20.46;57.62
5651;BME280;40241;52.684;9.758;2022-08-30T08:05:39;102057.31;;;20.54;57.61
5651;BME280;40241;52.684;9.758;2022-08-30T08:08:05;102069.97;;;20.60;57.43
5651;BME280;40241;52.684;9.758;2022-08-30T08:10:31;102070.88;;;20.68;57.30
5651;BME280;40241;52.684;9.758;2022-08-30T08:12:57;102070.78;;;20.74;57.15
5651;BME280;40241;52.684;9.758;2022-08-30T08:15:22;102066.03;;;20.69;57.16
5651;BME280;40241;52.684;9.758;2022-08-30T08:17:49;102068.31;;;20.70;57.19
5651;BME280;40241;52.684;9.758;2022-08-30T08:20:15;102070.47;;;20.77;57.09
5651;BME280;40241;52.684;9.758;2022-08-30T08:22:40;102068.91;;;20.82;57.17
5651;BME280;40241;52.684;9.758;2022-08-30T08:25:06;102070.09;;;20.86;57.03
5651;BME280;40241;52.684;9.758;2022-08-30T08:27:31;102071.03;;;20.95;57.02
5651;BME280;40241;52.684;9.758;2022-08-30T08:29:56;102082.13;;;21.00;56.81
5651;BME280;40241;52.684;9.758;2022-08-30T08:32:22;102073.94;;;21.02;56.76
5651;BME280;40241;52.684;9.758;2022-08-30T08:34:47;102071.16;;;21.02;56.78
5651;BME280;40241;52.684;9.758;2022-08-30T08:37:13;102074.66;;;21.08;56.73
5651;BME280;40241;52.684;9.758;2022-08-30T08:39:38;102080.69;;;21.12;56.76
5651;BME280;40241;52.684;9.758;2022-08-30T08:42:30;102080.84;;;21.20;56.59
5651;BME280;40241;52.684;9.758;2022-08-30T08:45:07;102082.72;;;21.30;56.55
5651;BME280;40241;52.684;9.758;2022-08-30T08:50:24;102075.44;;;21.40;56.36
5651;BME280;40241;52.684;9.758;2022-08-30T08:53:02;102075.78;;;21.50;56.18
5651;BME280;40241;52.684;9.758;2022-08-30T08:55:50;102072.69;;;21.67;56.12
5651;BME280;40241;52.684;9.758;2022-08-30T09:00:47;102069.50;;;22.02;55.88
5651;BME280;40241;52.684;9.758;2022-08-30T09:03:13;102076.09;;;22.17;55.63
5651;BME280;40241;52.684;9.758;2022-08-30T09:05:42;102078.69;;;22.28;55.40
5651;BME280;40241;52.684;9.758;2022-08-30T09:08:12;102070.16;;;22.34;55.12
5651;BME280;40241;52.684;9.758;2022-08-30T09:10:40;102071.16;;;22.36;55.11
5651;BME280;40241;52.684;9.758;2022-08-30T09:13:09;102068.94;;;22.56;55.09
5651;BME280;40241;52.684;9.758;2022-08-30T09:15:35;102082.56;;;22.65;54.78
5651;BME280;40241;52.684;9.758;2022-08-30T09:18:06;102068.19;;;22.68;54.62
5651;BME280;40241;52.684;9.758;2022-08-30T09:20:38;102059.97;;;22.70;54.60
5651;BME280;40241;52.684;9.758;2022-08-30T09:25:51;102064.50;;;23.07;53.84
5651;BME280;40241;52.684;9.758;2022-08-30T09:28:46;102061.69;;;23.07;53.36
5651;BME280;40241;52.684;9.758;2022-08-30T09:31:47;102063.06;;;23.13;53.31
5651;BME280;40241;52.684;9.758;2022-08-30T09:34:17;102058.75;;;23.13;53.48
5651;BME280;40241;52.684;9.758;2022-08-30T09:36:44;102064.31;;;23.26;53.73
5651;BME280;40241;52.684;9.758;2022-08-30T09:39:25;102064.41;;;23.54;53.23
5651;BME280;40241;52.684;9.758;2022-08-30T09:41:53;102061.53;;;23.74;53.24
5651;BME280;40241;52.684;9.758;2022-08-30T09:44:24;102052.50;;;23.97;53.14
5651;BME280;40241;52.684;9.758;2022-08-30T09:46:57;102056.59;;;24.16;52.52
5651;BME280;40241;52.684;9.758;2022-08-30T09:49:37;102062.88;;;24.30;51.78
5651;BME280;40241;52.684;9.758;2022-08-30T09:55:22;102064.25;;;24.08;51.64
5651;BME280;40241;52.684;9.758;2022-08-30T10:00:54;102060.81;;;24.02;51.69
5651;BME280;40241;52.684;9.758;2022-08-30T10:03:30;102060.25;;;24.04;51.78
5651;BME280;40241;52.684;9.758;2022-08-30T10:08:42;102045.50;;;24.11;51.75
5651;BME280;40241;52.684;9.758;2022-08-30T10:11:19;102043.59;;;24.06;51.22
5651;BME280;40241;52.684;9.758;2022-08-30T10:19:14;102041.94;;;24.46;50.46
5651;BME280;40241;52.684;9.758;2022-08-30T10:22:01;102042.66;;;24.46;49.94
5651;BME280;40241;52.684;9.758;2022-08-30T10:24:42;102040.13;;;24.64;48.73
5651;BME280;40241;52.684;9.758;2022-08-30T10:27:13;102021.19;;;24.72;49.53
5651;BME280;40241;52.684;9.758;2022-08-30T10:32:14;102011.31;;;24.93;49.91
5651;BME280;40241;52.684;9.758;2022-08-30T10:34:49;102023.34;;;25.09;49.51
5651;BME280;40241;52.684;9.758;2022-08-30T10:37:20;102012.25;;;25.18;49.51
5651;BME280;40241;52.684;9.758;2022-08-30T10:39:50;102018.47;;;25.24;48.91
5651;BME280;40241;52.684;9.758;2022-08-30T10:42:26;102017.34;;;25.27;48.16
5651;BME280;40241;52.684;9.758;2022-08-30T10:45:04;102018.09;;;25.36;48.19
5651;BME280;40241;52.684;9.758;2022-08-30T10:47:43;102020.72;;;25.41;48.17
5651;BME280;40241;52.684;9.758;2022-08-30T10:50:21;102018.84;;;25.51;48.14
5651;BME280;40241;52.684;9.758;2022-08-30T10:53:15;102010.97;;;25.57;46.54
5651;BME280;40241;52.684;9.758;2022-08-30T10:55:52;102011.34;;;25.61;46.98
5651;BME280;40241;52.684;9.758;2022-08-30T10:58:19;102007.00;;;25.68;47.62
5651;BME280;40241;52.684;9.758;2022-08-30T11:11:19;101996.66;;;26.40;45.71
5651;BME280;40241;52.684;9.758;2022-08-30T11:13:50;101995.47;;;26.43;45.77
5651;BME280;40241;52.684;9.758;2022-08-30T11:16:17;101994.69;;;26.50;45.80
5651;BME280;40241;52.684;9.758;2022-08-30T11:18:53;101993.81;;;26.72;44.81
5651;BME280;40241;52.684;9.758;2022-08-30T11:21:38;101987.13;;;26.93;44.23
5651;BME280;40241;52.684;9.758;2022-08-30T11:24:23;101979.97;;;26.92;44.56
5651;BME280;40241;52.684;9.758;2022-08-30T11:26:49;101986.31;;;26.75;44.98
5651;BME280;40241;52.684;9.758;2022-08-30T11:29:35;101984.09;;;26.58;42.15
5651;BME280;40241;52.684;9.758;2022-08-30T11:37:39;101985.09;;;26.06;44.53
5651;BME280;40241;52.684;9.758;2022-08-30T11:42:50;101994.44;;;25.61;45.56
5651;BME280;40241;52.684;9.758;2022-08-30T11:48:07;101986.94;;;25.34;45.42
5651;BME280;40241;52.684;9.758;2022-08-30T11:50:59;101987.69;;;25.26;45.92
5651;BME280;40241;52.684;9.758;2022-08-30T11:53:41;101983.91;;;25.16;46.36
5651;BME280;40241;52.684;9.758;2022-08-30T11:56:22;101981.66;;;25.30;45.66
5651;BME280;40241;52.684;9.758;2022-08-30T11:58:57;101971.66;;;25.67;45.75
5651;BME280;40241;52.684;9.758;2022-08-30T12:09:12;101970.56;;;27.14;43.19
5651;BME280;40241;52.684;9.758;2022-08-30T12:12:42;101960.84;;;27.49;41.24
5651;BME280;40241;52.684;9.758;2022-08-30T12:14:56;101972.81;;;27.40;42.86
5651;BME280;40241;52.684;9.758;2022-08-30T12:22:50;101961.19;;;27.28;43.28
5651;BME280;40241;52.684;9.758;2022-08-30T12:25:23;101955.84;;;27.40;42.69
5651;BME280;40241;52.684;9.758;2022-08-30T12:28:22;101960.94;;;27.17;41.49
5651;BME280;40241;52.684;9.758;2022-08-30T12:30:48;101952.50;;;27.09;43.25
5651;BME280;40241;52.684;9.758;2022-08-30T12:33:24;101951.97;;;27.28;42.07
5651;BME280;40241;52.684;9.758;2022-08-30T12:35:50;101955.94;;;27.50;42.73
5651;BME280;40241;52.684;9.758;2022-08-30T12:38:19;101950.47;;;27.52;41.97
5651;BME280;40241;52.684;9.758;2022-08-30T12:40:51;101947.22;;;27.30;41.71
5651;BME280;40241;52.684;9.758;2022-08-30T12:43:33;101948.44;;;27.03;42.23
5651;BME280;40241;52.684;9.758;2022-08-30T12:46:01;101946.53;;;26.81;42.73
5651;BME280;40241;52.684;9.758;2022-08-30T12:48:33;101939.47;;;26.64;42.36
5651;BME280;40241;52.684;9.758;2022-08-30T12:50:58;101942.56;;;26.51;42.83
5651;BME280;40241;52.684;9.758;2022-08-30T12:53:40;101938.84;;;26.41;41.56
5651;BME280;40241;52.684;9.758;2022-08-30T12:56:08;101942.53;;;26.27;42.61
5651;BME280;40241;52.684;9.758;2022-08-30T12:58:50;101943.13;;;26.18;42.88
5651;BME280;40241;52.684;9.758;2022-08-30T13:06:39;101920.97;;;26.14;42.81
5651;BME280;40241;52.684;9.758;2022-08-30T13:09:07;101934.72;;;26.10;42.75
5651;BME280;40241;52.684;9.758;2022-08-30T13:11:32;101921.91;;;26.17;42.63
5651;BME280;40241;52.684;9.758;2022-08-30T13:17:23;101911.44;;;26.59;41.61
5651;BME280;40241;52.684;9.758;2022-08-30T13:20:00;101906.09;;;26.70;41.28
5651;BME280;40241;52.684;9.758;2022-08-30T13:22:34;101908.25;;;26.62;41.70
5651;BME280;40241;52.684;9.758;2022-08-30T13:25:01;101915.66;;;26.50;42.37
5651;BME280;40241;52.684;9.758;2022-08-30T13:27:28;101921.91;;;26.41;42.33
5651;BME280;40241;52.684;9.758;2022-08-30T13:29:54;101913.53;;;26.26;42.38
5651;BME280;40241;52.684;9.758;2022-08-30T13:32:20;101915.13;;;26.12;42.41
5651;BME280;40241;52.684;9.758;2022-08-30T13:34:46;101918.72;;;26.05;42.58
5651;BME280;40241;52.684;9.758;2022-08-30T13:37:19;101912.91;;;25.95;42.36
5651;BME280;40241;52.684;9.758;2022-08-30T13:39:46;101913.34;;;25.84;42.69
5651;BME280;40241;52.684;9.758;2022-08-30T13:42:11;101922.97;;;25.74;42.98
5651;BME280;40241;52.684;9.758;2022-08-30T13:44:37;101916.22;;;25.69;42.81
5651;BME280;40241;52.684;9.758;2022-08-30T13:47:03;101914.16;;;25.70;43.13
5651;BME280;40241;52.684;9.758;2022-08-30T13:49:31;101911.72;;;25.66;43.07
5651;BME280;40241;52.684;9.758;2022-08-30T13:51:57;101917.75;;;25.63;43.10
5651;BME280;40241;52.684;9.758;2022-08-30T13:54:23;101915.50;;;25.54;43.12
5651;BME280;40241;52.684;9.758;2022-08-30T13:56:52;101921.50;;;25.58;43.11
5651;BME280;40241;52.684;9.758;2022-08-30T13:59:19;101920.00;;;25.57;43.33
5651;BME280;40241;52.684;9.758;2022-08-30T14:01:46;101914.38;;;25.57;43.49
5651;BME280;40241;52.684;9.758;2022-08-30T14:04:12;101914.56;;;25.59;43.49
5651;BME280;40241;52.684;9.758;2022-08-30T14:06:37;101924.13;;;25.56;43.43
5651;BME280;40241;52.684;9.758;2022-08-30T14:09:03;101921.13;;;25.54;43.47
5651;BME280;40241;52.684;9.758;2022-08-30T14:11:31;101920.78;;;25.50;43.39
5651;BME280;40241;52.684;9.758;2022-08-30T14:13:57;101919.47;;;25.51;43.51
5651;BME280;40241;52.684;9.758;2022-08-30T14:16:22;101922.28;;;25.51;43.50